Chapman, Texas
Current Conditions -  °F | °C
As of 6:55 AM on Friday 19 Dec 2014 (Local Time) from KRFI Reporting Station
Light Rain Light Rain  
Wind Chill: 43°   Ceiling: 300
Heat Index: 47°   Visibility: 7mi
Dew Point: 47°   Wind: 9mph
Humidity: 100%   Direction: 30°NNE
Pressure: 30.12"   Gusts: NA
Location:  32.1449°N, 94.7416°W
Report Text: KRFI 191255Z AUTO 03008KT 7SM -RA OVC003 09/09 A3012 RMK AO2 LTG DSNT SW T00860086
Loading
Personal Weather Stations






























Interactive Weather Map New forecast layout! Learn more

10-Day Weather Forecast

Advertisements
Track Severe Weather on mobile